Time;durP1;ratioP1;P1;durP2;ratioP2;P2;SDS_P1;SDS_P2;PMS_P1;PMS_P2;Temp;Humidity;BMP_temperature;BMP_pressure;BME280_temperature;BME280_humidity;BME280_pressure;Samples;Min_cycle;Max_cycle;Signal;HPM_P1;HPM_P2
2021/12/30 00:01:39;;;;;;;17.92;3.13;;;;;;;;;;5086592;28;20123;-77
2021/12/30 00:04:05;;;;;;;17.00;2.70;;;;;;;;;;5070261;28;20155;-78
2021/12/30 00:06:38;;;;;;;11.20;2.60;;;;;;;;;;5106858;28;20551;-77
2021/12/30 00:09:04;;;;;;;18.08;4.07;;;;;;;;;;5106501;28;20440;-77
2021/12/30 00:11:30;;;;;;;15.10;2.78;;;;;;;;;;5106478;28;20116;-77
2021/12/30 00:13:56;;;;;;;15.20;2.70;;;;;;;;;;5106813;28;20094;-77
2021/12/30 00:16:23;;;;;;;24.33;3.53;;;;;;;;;;5089502;28;20070;-77
2021/12/30 00:18:49;;;;;;;20.23;3.33;;;;;;;;;;5091681;28;20090;-77
2021/12/30 00:21:15;;;;;;;14.20;3.38;;;;;;;;;;5094048;28;20043;-77
2021/12/30 00:23:41;;;;;;;25.15;3.53;;;;;;;;;;5110373;28;20043;-77
2021/12/30 00:26:07;;;;;;;20.48;4.25;;;;;;;;;;5093663;28;20039;-76
2021/12/30 00:28:33;;;;;;;22.38;3.45;;;;;;;;;;5110172;28;20090;-77
2021/12/30 00:30:59;;;;;;;19.98;3.58;;;;;;;;;;5093226;28;20093;-76
2021/12/30 00:33:27;;;;;;;23.00;4.07;;;;;;;;;;5109880;28;20039;-77
2021/12/30 00:35:54;;;;;;;9.77;2.78;;;;;;;;;;5090955;28;20427;-76
2021/12/30 00:38:20;;;;;;;29.30;3.95;;;;;;;;;;5109531;28;20046;-77
2021/12/30 00:40:46;;;;;;;23.05;3.40;;;;;;;;;;5110023;28;20054;-77
2021/12/30 00:43:13;;;;;;;25.42;4.03;;;;;;;;;;5110195;28;20047;-77
2021/12/30 00:45:39;;;;;;;19.50;3.17;;;;;;;;;;5109430;28;20062;-77
2021/12/30 00:48:05;;;;;;;23.45;3.95;;;;;;;;;;5109260;28;20100;-77
2021/12/30 00:50:31;;;;;;;21.08;4.18;;;;;;;;;;5092060;28;20074;-77
2021/12/30 00:52:59;;;;;;;26.98;3.95;;;;;;;;;;5109432;28;20410;-77
2021/12/30 00:55:25;;;;;;;21.15;3.70;;;;;;;;;;5092306;28;20530;-77
2021/12/30 00:57:51;;;;;;;28.00;3.92;;;;;;;;;;5109694;28;20044;-77
2021/12/30 01:00:18;;;;;;;24.27;3.45;;;;;;;;;;5096177;28;20540;-77
2021/12/30 01:02:44;;;;;;;22.17;4.47;;;;;;;;;;5112516;28;20039;-76
2021/12/30 01:05:11;;;;;;;31.90;4.35;;;;;;;;;;5112860;28;20047;-77
2021/12/30 01:07:37;;;;;;;22.63;3.60;;;;;;;;;;5112610;28;20125;-77
2021/12/30 01:10:04;;;;;;;25.52;3.78;;;;;;;;;;5095761;28;20047;-77
2021/12/30 01:12:31;;;;;;;26.33;4.13;;;;;;;;;;5112400;28;20396;-77
2021/12/30 01:14:57;;;;;;;21.00;3.72;;;;;;;;;;5112732;28;20036;-76
2021/12/30 01:17:38;;;;;;;25.85;3.90;;;;;;;;;;5112789;28;20062;-77
2021/12/30 01:20:04;;;;;;;;;;;;;;;;;;5112945;28;20043;-77
2021/12/30 01:22:33;;;;;;;21.85;3.72;;;;;;;;;;5095503;28;19927;-75
2021/12/30 01:24:59;;;;;;;27.58;4.78;;;;;;;;;;5095489;28;20039;-76
2021/12/30 01:27:25;;;;;;;27.70;4.50;;;;;;;;;;5095347;28;20044;-76
2021/12/30 01:29:51;;;;;;;26.73;4.50;;;;;;;;;;5111604;28;20069;-77
2021/12/30 01:32:17;;;;;;;28.20;4.68;;;;;;;;;;5112351;28;20065;-76
2021/12/30 01:34:43;;;;;;;22.90;4.22;;;;;;;;;;5112436;28;20093;-77
2021/12/30 01:37:09;;;;;;;31.48;4.45;;;;;;;;;;5112073;28;20483;-77
2021/12/30 01:39:38;;;;;;;26.25;4.53;;;;;;;;;;5111957;28;20048;-76
2021/12/30 01:42:04;;;;;;;29.40;3.95;;;;;;;;;;5111909;28;20052;-76
2021/12/30 01:44:32;;;;;;;32.20;5.05;;;;;;;;;;5112166;28;20046;-77
2021/12/30 01:46:58;;;;;;;27.73;4.43;;;;;;;;;;5095298;28;20044;-76
2021/12/30 01:49:25;;;;;;;29.05;4.68;;;;;;;;;;5111865;28;20463;-77
2021/12/30 01:51:52;;;;;;;32.25;4.72;;;;;;;;;;5095290;28;20129;-76
2021/12/30 01:54:19;;;;;;;30.55;3.78;;;;;;;;;;5112012;28;20031;-77
2021/12/30 01:56:45;;;;;;;20.50;3.92;;;;;;;;;;5111822;28;20147;-76
2021/12/30 01:59:12;;;;;;;32.08;4.20;;;;;;;;;;5111954;28;20047;-77
2021/12/30 02:01:38;;;;;;;23.73;3.47;;;;;;;;;;5111938;28;20044;-77
2021/12/30 02:04:04;;;;;;;32.50;4.22;;;;;;;;;;5094636;28;20646;-77
2021/12/30 02:06:30;;;;;;;28.20;4.28;;;;;;;;;;5094902;28;20036;-77
2021/12/30 02:08:56;;;;;;;23.13;3.90;;;;;;;;;;5111612;28;20134;-77
2021/12/30 02:11:23;;;;;;;31.63;4.80;;;;;;;;;;5111449;28;20104;-77
2021/12/30 02:13:52;;;;;;;26.73;4.82;;;;;;;;;;5111288;28;20036;-77
2021/12/30 02:16:20;;;;;;;31.25;4.03;;;;;;;;;;5111471;28;20122;-79
2021/12/30 02:18:46;;;;;;;32.20;5.05;;;;;;;;;;5111599;28;20514;-76
2021/12/30 02:21:13;;;;;;;24.23;4.55;;;;;;;;;;5111748;28;20028;-76
2021/12/30 02:23:39;;;;;;;27.27;4.60;;;;;;;;;;5094320;28;20046;-78
2021/12/30 02:26:06;;;;;;;24.52;4.22;;;;;;;;;;5111644;28;20065;-77
2021/12/30 02:28:33;;;;;;;28.23;4.25;;;;;;;;;;5094333;28;20035;-77
2021/12/30 02:31:01;;;;;;;29.92;3.97;;;;;;;;;;5111024;28;20128;-76
2021/12/30 02:33:27;;;;;;;35.13;5.03;;;;;;;;;;5094050;28;20058;-78
2021/12/30 02:35:54;;;;;;;23.73;3.80;;;;;;;;;;5111066;28;20124;-77
2021/12/30 02:38:20;;;;;;;24.50;4.13;;;;;;;;;;5093963;28;20036;-77
2021/12/30 02:40:52;;;;;;;28.98;4.85;;;;;;;;;;5111041;28;20118;-77
2021/12/30 02:43:21;;;;;;;28.35;4.97;;;;;;;;;;5093636;28;20491;-77
2021/12/30 02:45:47;;;;;;;23.10;3.85;;;;;;;;;;5111225;28;20055;-77
2021/12/30 02:48:14;;;;;;;29.20;3.92;;;;;;;;;;5111169;28;20100;-77
2021/12/30 02:50:40;;;;;;;28.33;4.43;;;;;;;;;;5111149;28;20043;-78
2021/12/30 02:53:06;;;;;;;23.70;4.22;;;;;;;;;;5111167;28;20044;-76
2021/12/30 02:55:32;;;;;;;28.17;5.82;;;;;;;;;;5111197;28;20504;-77
2021/12/30 02:57:58;;;;;;;18.08;3.85;;;;;;;;;;5111035;28;20071;-78
2021/12/30 03:00:24;;;;;;;28.75;4.15;;;;;;;;;;5110678;28;20122;-77
2021/12/30 03:02:50;;;;;;;32.72;4.55;;;;;;;;;;5091976;28;20040;-77
2021/12/30 03:05:19;;;;;;;24.52;4.43;;;;;;;;;;5110316;28;20402;-77
2021/12/30 03:07:45;;;;;;;27.98;4.82;;;;;;;;;;5110377;28;20055;-77
2021/12/30 03:10:16;;;;;;;19.48;4.57;;;;;;;;;;5093742;28;20051;-77
2021/12/30 03:12:43;;;;;;;39.42;5.75;;;;;;;;;;5110764;28;20332;-77
2021/12/30 03:15:12;;;;;;;30.17;6.20;;;;;;;;;;5094067;28;20042;-77
2021/12/30 03:17:38;;;;;;;31.77;5.45;;;;;;;;;;5110905;28;20044;-75
2021/12/30 03:20:09;;;;;;;36.38;7.25;;;;;;;;;;5110667;28;20039;-77
2021/12/30 03:22:35;;;;;;;38.17;7.28;;;;;;;;;;5093832;28;20079;-77
2021/12/30 03:25:01;;;;;;;34.70;7.05;;;;;;;;;;5110977;28;20042;-76
2021/12/30 03:27:27;;;;;;;51.03;9.25;;;;;;;;;;5093857;28;20403;-77
2021/12/30 03:29:52;;;;;;;44.05;8.93;;;;;;;;;;5093568;28;20043;-76
2021/12/30 03:32:18;;;;;;;46.55;9.00;;;;;;;;;;5108796;28;20031;-77
2021/12/30 03:34:44;;;;;;;41.92;9.57;;;;;;;;;;5091779;28;20052;-76
2021/12/30 03:37:10;;;;;;;51.53;9.82;;;;;;;;;;5110011;28;20032;-76
2021/12/30 03:39:38;;;;;;;48.13;9.93;;;;;;;;;;5110519;28;20495;-77
2021/12/30 03:42:04;;;;;;;45.80;10.98;;;;;;;;;;5110889;28;20142;-77
2021/12/30 03:44:30;;;;;;;36.95;9.93;;;;;;;;;;5093513;28;20083;-77
2021/12/30 03:46:56;;;;;;;43.25;10.27;;;;;;;;;;5110312;28;20082;-77
2021/12/30 03:49:22;;;;;;;49.88;10.60;;;;;;;;;;5110329;28;20044;-76
2021/12/30 03:51:50;;;;;;;44.80;9.55;;;;;;;;;;5110276;28;20155;-77
2021/12/30 03:54:16;;;;;;;36.65;11.73;;;;;;;;;;5096466;28;20053;-76
2021/12/30 03:56:42;;;;;;;52.10;10.93;;;;;;;;;;5114518;28;20122;-77
2021/12/30 03:59:09;;;;;;;50.25;10.43;;;;;;;;;;5097440;28;20122;-74
2021/12/30 04:01:35;;;;;;;48.17;10.50;;;;;;;;;;5114610;28;20114;-77
2021/12/30 04:04:01;;;;;;;41.72;9.75;;;;;;;;;;5113205;28;20040;-77
2021/12/30 04:06:27;;;;;;;46.35;9.98;;;;;;;;;;5097614;28;20130;-77
2021/12/30 04:08:54;;;;;;;31.35;9.48;;;;;;;;;;5114158;28;20051;-77
2021/12/30 04:11:22;;;;;;;43.40;10.27;;;;;;;;;;5114109;28;20085;-76
2021/12/30 04:13:49;;;;;;;41.03;9.57;;;;;;;;;;5114081;28;20127;-76
2021/12/30 04:16:15;;;;;;;39.97;10.13;;;;;;;;;;5096959;28;20032;-76
2021/12/30 04:18:41;;;;;;;44.58;10.07;;;;;;;;;;5097253;28;20048;-76
2021/12/30 04:21:07;;;;;;;33.58;8.90;;;;;;;;;;5097363;28;20043;-76
2021/12/30 04:23:33;;;;;;;37.63;10.15;;;;;;;;;;5096904;28;20040;-76
2021/12/30 04:25:59;;;;;;;44.65;10.50;;;;;;;;;;5114295;28;20504;-76
2021/12/30 04:28:25;;;;;;;43.85;10.60;;;;;;;;;;5114154;28;20096;-77
2021/12/30 04:30:51;;;;;;;38.17;9.48;;;;;;;;;;5096705;28;20046;-78
2021/12/30 04:33:17;;;;;;;34.60;8.45;;;;;;;;;;5096769;28;20472;-77
2021/12/30 04:35:43;;;;;;;44.83;10.10;;;;;;;;;;5112418;28;20510;-77
2021/12/30 04:38:09;;;;;;;36.30;9.05;;;;;;;;;;5113772;28;20088;-77
2021/12/30 04:40:36;;;;;;;41.72;9.68;;;;;;;;;;5096418;28;20043;-77
2021/12/30 04:43:01;;;;;;;41.97;8.93;;;;;;;;;;5113634;28;20071;-76
2021/12/30 04:45:29;;;;;;;44.10;9.82;;;;;;;;;;5096816;28;20079;-77
2021/12/30 04:47:55;;;;;;;37.30;7.78;;;;;;;;;;5113576;28;20047;-77
2021/12/30 04:50:21;;;;;;;33.85;9.40;;;;;;;;;;5113621;28;20071;-76
2021/12/30 04:52:47;;;;;;;41.05;8.90;;;;;;;;;;5113414;28;20044;-76
2021/12/30 04:55:13;;;;;;;46.38;9.93;;;;;;;;;;5113287;28;20084;-77
2021/12/30 04:57:39;;;;;;;45.40;8.77;;;;;;;;;;5113274;28;20027;-75
2021/12/30 05:00:08;;;;;;;47.33;9.15;;;;;;;;;;5113247;28;20039;-78
2021/12/30 05:02:51;;;;;;;44.22;10.25;;;;;;;;;;5113039;28;20043;-76
2021/12/30 05:05:18;;;;;;;38.53;9.73;;;;;;;;;;5080779;28;20127;-77
2021/12/30 05:07:43;;;;;;;41.58;9.07;;;;;;;;;;5092613;28;20456;-76
2021/12/30 05:10:10;;;;;;;46.20;9.65;;;;;;;;;;5092757;28;20480;-76
2021/12/30 05:12:36;;;;;;;45.10;11.00;;;;;;;;;;5075596;28;20051;-77
2021/12/30 05:15:03;;;;;;;50.28;10.38;;;;;;;;;;5092721;28;20052;-76
2021/12/30 05:17:30;;;;;;;49.95;10.50;;;;;;;;;;5092623;28;20043;-75
2021/12/30 05:19:56;;;;;;;39.35;10.00;;;;;;;;;;5092542;28;20380;-76
2021/12/30 05:22:22;;;;;;;37.30;9.52;;;;;;;;;;5092833;28;20053;-76
2021/12/30 05:24:48;;;;;;;41.00;9.23;;;;;;;;;;5092370;28;20064;-76
2021/12/30 05:27:13;;;;;;;41.67;9.02;;;;;;;;;;5075525;28;20105;-77
2021/12/30 05:29:39;;;;;;;40.67;9.90;;;;;;;;;;5092522;28;20040;-77
2021/12/30 05:32:05;;;;;;;38.75;10.18;;;;;;;;;;5075501;28;20112;-77
2021/12/30 05:34:31;;;;;;;32.47;8.10;;;;;;;;;;5090789;28;20028;-77
2021/12/30 05:36:57;;;;;;;22.42;7.57;;;;;;;;;;5075427;28;20042;-75
2021/12/30 05:39:23;;;;;;;33.30;7.88;;;;;;;;;;5091787;28;20036;-76
2021/12/30 05:41:49;;;;;;;27.27;7.82;;;;;;;;;;5091457;28;20046;-76
2021/12/30 05:44:15;;;;;;;26.05;7.38;;;;;;;;;;5075447;28;20036;-76
2021/12/30 05:46:41;;;;;;;20.02;7.20;;;;;;;;;;5075118;28;20036;-76
2021/12/30 05:49:07;;;;;;;23.85;7.72;;;;;;;;;;5075207;28;20537;-76
2021/12/30 05:51:33;;;;;;;23.00;7.03;;;;;;;;;;5092177;28;20131;-76
2021/12/30 05:53:59;;;;;;;18.95;7.00;;;;;;;;;;5091856;28;20040;-73
2021/12/30 05:56:25;;;;;;;21.88;6.97;;;;;;;;;;5074944;28;20032;-75
2021/12/30 05:58:51;;;;;;;19.17;6.53;;;;;;;;;;5091715;28;20038;-76
2021/12/30 06:01:17;;;;;;;19.15;5.90;;;;;;;;;;5091904;28;20028;-75
2021/12/30 06:03:43;;;;;;;17.42;6.18;;;;;;;;;;5091541;28;20065;-76
2021/12/30 06:06:09;;;;;;;14.43;6.10;;;;;;;;;;5090612;28;20061;-76
2021/12/30 06:08:36;;;;;;;15.90;6.20;;;;;;;;;;5074578;28;20056;-76
2021/12/30 06:11:02;;;;;;;14.30;5.50;;;;;;;;;;5091713;28;20416;-74
2021/12/30 06:13:29;;;;;;;18.52;6.47;;;;;;;;;;5091668;28;20047;-75
2021/12/30 06:15:55;;;;;;;16.92;6.00;;;;;;;;;;5091548;28;20531;-76
2021/12/30 06:18:21;;;;;;;12.32;5.43;;;;;;;;;;5074556;28;20488;-76
2021/12/30 06:20:47;;;;;;;17.08;5.88;;;;;;;;;;5091386;28;20036;-76
2021/12/30 06:23:13;;;;;;;16.17;6.25;;;;;;;;;;5091101;28;20040;-77
2021/12/30 06:25:39;;;;;;;17.20;6.30;;;;;;;;;;5091393;28;20036;-77
2021/12/30 06:28:05;;;;;;;19.55;6.75;;;;;;;;;;5074266;28;20488;-77
2021/12/30 06:30:31;;;;;;;18.30;6.43;;;;;;;;;;5074584;28;20158;-76
2021/12/30 06:32:57;;;;;;;25.45;8.18;;;;;;;;;;5074352;28;20407;-76
2021/12/30 06:35:23;;;;;;;29.67;8.45;;;;;;;;;;5102469;28;20116;-75
2021/12/30 06:37:49;;;;;;;28.80;8.75;;;;;;;;;;5111241;28;20028;-76
2021/12/30 06:40:15;;;;;;;23.42;8.15;;;;;;;;;;5111037;28;20046;-77
2021/12/30 06:42:43;;;;;;;27.58;9.27;;;;;;;;;;5111141;28;20579;-76
2021/12/30 06:45:09;;;;;;;29.85;8.98;;;;;;;;;;5094298;28;20039;-77
2021/12/30 06:47:35;;;;;;;34.47;9.55;;;;;;;;;;5110920;28;20434;-75
2021/12/30 06:50:02;;;;;;;34.30;10.77;;;;;;;;;;5093799;28;20043;-77
2021/12/30 06:52:28;;;;;;;34.33;9.23;;;;;;;;;;5093967;28;20090;-76
2021/12/30 06:54:54;;;;;;;43.15;10.35;;;;;;;;;;5094152;28;20042;-76
2021/12/30 06:57:20;;;;;;;43.17;11.30;;;;;;;;;;5093822;28;20138;-75
2021/12/30 06:59:46;;;;;;;33.92;11.10;;;;;;;;;;5110673;28;20496;-76
2021/12/30 07:02:13;;;;;;;33.95;9.35;;;;;;;;;;5110533;28;20051;-76
2021/12/30 07:04:40;;;;;;;39.72;10.27;;;;;;;;;;5110511;28;20039;-76
2021/12/30 07:07:06;;;;;;;33.28;9.15;;;;;;;;;;5093616;28;20046;-76
2021/12/30 07:09:32;;;;;;;30.30;8.70;;;;;;;;;;5089008;28;20380;-74
2021/12/30 07:11:58;;;;;;;28.05;9.45;;;;;;;;;;5089690;28;20070;-76
2021/12/30 07:14:25;;;;;;;28.30;8.02;;;;;;;;;;5106679;28;20390;-77
2021/12/30 07:16:51;;;;;;;19.42;5.88;;;;;;;;;;5107071;28;20067;-74
2021/12/30 07:19:17;;;;;;;21.10;7.20;;;;;;;;;;5106753;28;20031;-76
2021/12/30 07:21:44;;;;;;;24.27;7.35;;;;;;;;;;5106787;28;20514;-76
2021/12/30 07:24:10;;;;;;;19.33;6.55;;;;;;;;;;5090124;28;20084;-76
2021/12/30 07:26:36;;;;;;;16.60;6.30;;;;;;;;;;5089483;28;20128;-75
2021/12/30 07:29:02;;;;;;;17.23;6.07;;;;;;;;;;5089188;28;20641;-76
2021/12/30 07:31:29;;;;;;;18.95;6.55;;;;;;;;;;5089772;28;20044;-75
2021/12/30 07:33:55;;;;;;;18.00;6.65;;;;;;;;;;5106543;28;20044;-76
2021/12/30 07:36:21;;;;;;;20.02;6.30;;;;;;;;;;5089626;28;20047;-76
2021/12/30 07:38:48;;;;;;;16.90;5.78;;;;;;;;;;5089698;28;20047;-76
2021/12/30 07:41:14;;;;;;;21.08;5.70;;;;;;;;;;5107011;28;20044;-76
2021/12/30 07:43:40;;;;;;;16.02;5.22;;;;;;;;;;5106766;28;20362;-75
2021/12/30 07:46:09;;;;;;;19.92;5.15;;;;;;;;;;5106846;28;20051;-77
2021/12/30 07:48:35;;;;;;;12.73;4.63;;;;;;;;;;5106350;28;20052;-76
2021/12/30 07:51:01;;;;;;;15.10;4.63;;;;;;;;;;5089602;28;20530;-77
2021/12/30 07:53:27;;;;;;;10.40;3.97;;;;;;;;;;5089788;28;20691;-77
2021/12/30 07:55:53;;;;;;;12.23;3.88;;;;;;;;;;5089723;28;20461;-77
2021/12/30 07:58:19;;;;;;;9.93;3.70;;;;;;;;;;5089566;28;20040;-76
2021/12/30 08:00:45;;;;;;;8.63;3.05;;;;;;;;;;5106402;28;20394;-76
2021/12/30 08:03:11;;;;;;;7.90;2.88;;;;;;;;;;5106727;28;20035;-77
2021/12/30 08:05:37;;;;;;;10.00;3.38;;;;;;;;;;5106517;28;20429;-76
2021/12/30 08:08:03;;;;;;;7.80;2.63;;;;;;;;;;5089474;28;20486;-76
2021/12/30 08:10:29;;;;;;;8.60;2.97;;;;;;;;;;5089376;28;20047;-76
2021/12/30 08:12:55;;;;;;;8.55;2.47;;;;;;;;;;5106105;28;20065;-77
2021/12/30 08:15:22;;;;;;;4.65;2.08;;;;;;;;;;5106771;28;20122;-79
2021/12/30 08:17:49;;;;;;;4.25;1.98;;;;;;;;;;5106310;28;20274;-77
2021/12/30 08:20:15;;;;;;;4.60;2.08;;;;;;;;;;5089448;28;20089;-77
2021/12/30 08:22:41;;;;;;;4.25;1.65;;;;;;;;;;5089684;28;20043;-77
2021/12/30 08:25:09;;;;;;;6.90;1.65;;;;;;;;;;5106051;28;20043;-76
2021/12/30 08:27:36;;;;;;;5.38;1.60;;;;;;;;;;5106113;28;20047;-76
2021/12/30 08:30:03;;;;;;;4.45;2.20;;;;;;;;;;5106620;28;20082;-77
2021/12/30 08:32:29;;;;;;;3.35;1.50;;;;;;;;;;5089307;28;20096;-77
2021/12/30 08:34:55;;;;;;;2.13;1.30;;;;;;;;;;5106863;28;20043;-76
2021/12/30 08:37:21;;;;;;;3.88;1.50;;;;;;;;;;5106333;28;20039;-77
2021/12/30 08:39:47;;;;;;;2.63;1.10;;;;;;;;;;5106980;28;20048;-74
2021/12/30 08:42:17;;;;;;;2.00;1.02;;;;;;;;;;5093524;28;20511;-77
2021/12/30 08:44:43;;;;;;;2.92;1.55;;;;;;;;;;5093330;28;20066;-75
2021/12/30 08:47:09;;;;;;;1.40;0.90;;;;;;;;;;5093071;28;20043;-75
2021/12/30 08:49:35;;;;;;;2.70;1.25;;;;;;;;;;5092871;28;20518;-77
2021/12/30 08:52:01;;;;;;;2.15;1.23;;;;;;;;;;5110527;28;20575;-77
2021/12/30 08:54:29;;;;;;;1.40;1.00;;;;;;;;;;5093008;28;20035;-78
2021/12/30 08:56:55;;;;;;;2.20;1.10;;;;;;;;;;5091310;28;20038;-78
2021/12/30 08:59:21;;;;;;;2.05;1.40;;;;;;;;;;5110236;28;20035;-77
2021/12/30 09:01:47;;;;;;;2.85;1.42;;;;;;;;;;5109988;28;20061;-78
2021/12/30 09:04:13;;;;;;;2.00;1.45;;;;;;;;;;5110123;28;20044;-76
2021/12/30 09:06:39;;;;;;;4.45;1.85;;;;;;;;;;5110024;28;20249;-77
2021/12/30 09:09:05;;;;;;;3.72;2.20;;;;;;;;;;5109782;28;20147;-78
2021/12/30 09:11:31;;;;;;;3.38;1.92;;;;;;;;;;5092865;28;20051;-76
2021/12/30 09:13:57;;;;;;;4.22;2.30;;;;;;;;;;5110086;28;20073;-78
2021/12/30 09:16:23;;;;;;;6.57;2.75;;;;;;;;;;5093094;28;20039;-78
2021/12/30 09:18:49;;;;;;;6.68;2.90;;;;;;;;;;5093466;28;20075;-77
2021/12/30 09:21:15;;;;;;;9.77;3.10;;;;;;;;;;5110985;28;20475;-76
2021/12/30 09:23:41;;;;;;;4.90;2.80;;;;;;;;;;5093756;28;20044;-79
2021/12/30 09:26:07;;;;;;;8.05;2.97;;;;;;;;;;5082200;28;20097;-77
2021/12/30 09:28:33;;;;;;;8.38;4.53;;;;;;;;;;5073817;28;20419;-78
2021/12/30 09:30:59;;;;;;;7.75;3.08;;;;;;;;;;5089519;28;20144;-77
2021/12/30 09:33:25;;;;;;;6.10;2.65;;;;;;;;;;5089416;28;20039;-78
2021/12/30 09:35:51;;;;;;;7.90;2.30;;;;;;;;;;5105958;28;20039;-79
2021/12/30 09:38:17;;;;;;;7.90;2.70;;;;;;;;;;5091163;28;20040;-77
2021/12/30 09:40:43;;;;;;;7.88;2.42;;;;;;;;;;5077407;28;20044;-77
2021/12/30 09:43:11;;;;;;;4.85;2.20;;;;;;;;;;5077919;28;20040;-76
2021/12/30 09:45:39;;;;;;;6.47;2.05;;;;;;;;;;5079072;28;20044;-77
2021/12/30 09:48:07;;;;;;;4.57;2.15;;;;;;;;;;5077441;28;20051;-78
2021/12/30 09:50:35;;;;;;;5.47;2.42;;;;;;;;;;5076408;28;20136;-78
2021/12/30 09:53:01;;;;;;;7.45;2.58;;;;;;;;;;5078622;28;20097;-76
2021/12/30 09:55:27;;;;;;;5.28;2.67;;;;;;;;;;5077433;28;20040;-77
2021/12/30 09:57:54;;;;;;;9.88;3.05;;;;;;;;;;5076797;28;20044;-80
2021/12/30 10:00:20;;;;;;;10.45;2.88;;;;;;;;;;5078830;28;20038;-78
2021/12/30 10:02:47;;;;;;;8.77;3.25;;;;;;;;;;5076833;28;20400;-78
2021/12/30 10:05:17;;;;;;;9.52;3.30;;;;;;;;;;5079619;28;20044;-77
2021/12/30 10:07:43;;;;;;;;;;;;;;;;;;5093789;28;20052;-76
2021/12/30 10:10:25;;;;;;;13.10;3.08;;;;;;;;;;5094166;28;20291;-77
2021/12/30 10:12:51;;;;;;;9.57;3.35;;;;;;;;;;5094310;28;20122;-78
2021/12/30 10:15:17;;;;;;;12.63;3.70;;;;;;;;;;5089094;28;20131;-78
2021/12/30 10:17:43;;;;;;;8.82;2.83;;;;;;;;;;5089347;28;20050;-80
2021/12/30 10:20:24;;;;;;;8.20;2.92;;;;;;;;;;5088635;28;20040;-76
2021/12/30 10:22:50;;;;;;;6.15;3.17;;;;;;;;;;5094255;28;20043;-78
2021/12/30 10:25:33;;;;;;;8.95;2.83;;;;;;;;;;5078935;28;20521;-78
2021/12/30 10:28:17;;;;;;;8.23;2.80;;;;;;;;;;5089534;28;20097;-79
2021/12/30 10:30:44;;;;;;;9.55;2.35;;;;;;;;;;5089615;28;20100;-77
2021/12/30 10:33:11;;;;;;;10.40;2.70;;;;;;;;;;5089062;28;20396;-80
2021/12/30 10:35:37;;;;;;;5.75;2.70;;;;;;;;;;5087258;28;20048;-78
2021/12/30 10:38:08;;;;;;;10.68;2.47;;;;;;;;;;5091348;28;20040;-78
2021/12/30 10:40:35;;;;;;;8.77;2.72;;;;;;;;;;5091464;28;20093;-77
2021/12/30 10:43:24;;;;;;;8.88;2.85;;;;;;;;;;5074786;28;20408;-78
2021/12/30 10:46:17;;;;;;;12.85;2.80;;;;;;;;;;5091573;28;20043;-78
2021/12/30 10:48:46;;;;;;;9.43;3.40;;;;;;;;;;5069868;28;20052;-76
2021/12/30 10:51:13;;;;;;;9.73;3.05;;;;;;;;;;5074287;28;20416;-77
2021/12/30 10:53:39;;;;;;;14.80;4.03;;;;;;;;;;5074425;28;20036;-78
2021/12/30 10:56:26;;;;;;;11.00;3.08;;;;;;;;;;5074384;28;20097;-74
2021/12/30 10:59:07;;;;;;;12.68;3.88;;;;;;;;;;5091466;28;20105;-78
2021/12/30 11:01:36;;;;;;;9.48;3.15;;;;;;;;;;5091403;28;20076;-80
2021/12/30 11:04:02;;;;;;;18.58;4.28;;;;;;;;;;5091631;28;20083;-77
2021/12/30 11:06:28;;;;;;;9.77;3.47;;;;;;;;;;5111292;28;20043;-78
2021/12/30 11:09:11;;;;;;;15.63;3.40;;;;;;;;;;5111275;28;20430;-78
2021/12/30 11:11:40;;;;;;;13.25;3.10;;;;;;;;;;5111648;28;20085;-77
2021/12/30 11:14:08;;;;;;;13.63;3.58;;;;;;;;;;5088732;28;20052;-78
2021/12/30 11:16:50;;;;;;;17.83;3.95;;;;;;;;;;5080272;28;20562;-76
2021/12/30 11:19:17;;;;;;;9.18;3.17;;;;;;;;;;5095761;28;20054;-75
2021/12/30 11:21:44;;;;;;;14.73;4.20;;;;;;;;;;5079133;28;20028;-79
2021/12/30 11:24:10;;;;;;;15.35;4.13;;;;;;;;;;5080381;28;20040;-78
2021/12/30 11:26:39;;;;;;;15.48;3.63;;;;;;;;;;5078689;28;20044;-75
2021/12/30 11:29:05;;;;;;;21.50;3.80;;;;;;;;;;5078978;28;20071;-77
2021/12/30 11:31:31;;;;;;;19.63;4.22;;;;;;;;;;5080031;28;20032;-76
2021/12/30 11:33:59;;;;;;;21.58;4.53;;;;;;;;;;5079432;28;20063;-75
2021/12/30 11:36:28;;;;;;;16.85;4.53;;;;;;;;;;5078467;28;20100;-77
2021/12/30 11:38:54;;;;;;;19.13;4.05;;;;;;;;;;5079670;28;20032;-77
2021/12/30 11:41:21;;;;;;;16.73;3.95;;;;;;;;;;5078665;28;20037;-76
2021/12/30 11:43:47;;;;;;;17.95;4.18;;;;;;;;;;5078421;28;20101;-76
2021/12/30 11:46:36;;;;;;;21.23;4.75;;;;;;;;;;5080325;28;20047;-76
2021/12/30 11:49:03;;;;;;;14.93;4.07;;;;;;;;;;5080010;28;20051;-77
2021/12/30 11:51:42;;;;;;;22.77;4.35;;;;;;;;;;5080127;28;20036;-76
2021/12/30 11:54:27;;;;;;;13.65;4.22;;;;;;;;;;5096478;28;20050;-76
2021/12/30 11:57:12;;;;;;;23.48;4.95;;;;;;;;;;5088820;28;20138;-76
2021/12/30 11:59:39;;;;;;;21.38;4.53;;;;;;;;;;5086655;28;20081;-75
2021/12/30 12:02:24;;;;;;;22.52;5.55;;;;;;;;;;5064068;28;20041;-77
2021/12/30 12:04:50;;;;;;;30.38;4.57;;;;;;;;;;5087863;28;20040;-77
2021/12/30 12:07:16;;;;;;;22.75;4.35;;;;;;;;;;5078212;28;20047;-77
2021/12/30 12:09:43;;;;;;;25.58;4.90;;;;;;;;;;5078705;28;20044;-75
2021/12/30 12:12:14;;;;;;;24.83;4.82;;;;;;;;;;5080053;28;20040;-77
2021/12/30 12:14:44;;;;;;;25.98;4.18;;;;;;;;;;5089075;28;20522;-75
2021/12/30 12:17:12;;;;;;;21.83;5.28;;;;;;;;;;5084178;28;20514;-77
2021/12/30 12:19:42;;;;;;;16.05;4.45;;;;;;;;;;5081963;28;20036;-77
2021/12/30 12:22:17;;;;;;;25.13;5.85;;;;;;;;;;5081862;28;20044;-77
2021/12/30 12:24:44;;;;;;;21.50;5.40;;;;;;;;;;5099750;28;20048;-79
2021/12/30 12:27:33;;;;;;;20.25;4.45;;;;;;;;;;5081338;28;20073;-76
2021/12/30 12:30:01;;;;;;;20.90;4.55;;;;;;;;;;5083465;28;20078;-77
2021/12/30 12:32:30;;;;;;;18.17;4.40;;;;;;;;;;5083093;28;20048;-75
2021/12/30 12:34:58;;;;;;;22.80;4.53;;;;;;;;;;5089121;28;20043;-76
2021/12/30 12:37:33;;;;;;;17.95;3.90;;;;;;;;;;5083746;28;20374;-75
2021/12/30 12:40:01;;;;;;;17.65;4.35;;;;;;;;;;5090050;28;20479;-76
2021/12/30 12:42:46;;;;;;;19.30;4.28;;;;;;;;;;5066594;28;20505;-76
2021/12/30 12:45:23;;;;;;;18.15;4.10;;;;;;;;;;5092046;28;20032;-76
2021/12/30 12:48:08;;;;;;;19.02;5.18;;;;;;;;;;5081519;28;20043;-76
2021/12/30 12:50:38;;;;;;;17.50;3.30;;;;;;;;;;5092198;28;20046;-78
2021/12/30 12:53:18;;;;;;;16.63;5.50;;;;;;;;;;5081677;28;20036;-76
2021/12/30 12:55:44;;;;;;;17.77;3.95;;;;;;;;;;5098857;28;20032;-77
2021/12/30 12:58:10;;;;;;;26.58;5.13;;;;;;;;;;5080640;28;20047;-78
2021/12/30 13:00:36;;;;;;;16.58;4.13;;;;;;;;;;5082528;28;20036;-77
2021/12/30 13:03:03;;;;;;;20.13;4.50;;;;;;;;;;5082701;28;20523;-77
2021/12/30 13:05:29;;;;;;;20.73;4.80;;;;;;;;;;5082240;28;20044;-77
2021/12/30 13:07:56;;;;;;;13.93;4.40;;;;;;;;;;5080192;28;20061;-79
2021/12/30 13:10:22;;;;;;;22.20;4.80;;;;;;;;;;5082047;28;20093;-77
2021/12/30 13:12:48;;;;;;;20.35;4.47;;;;;;;;;;5082344;28;20056;-74
2021/12/30 13:15:15;;;;;;;20.00;4.38;;;;;;;;;;5080609;28;20032;-80
2021/12/30 13:17:43;;;;;;;16.45;4.20;;;;;;;;;;5081579;28;20468;-75
2021/12/30 13:20:10;;;;;;;22.40;4.25;;;;;;;;;;5082349;28;20070;-77
2021/12/30 13:22:36;;;;;;;10.05;4.65;;;;;;;;;;5082183;28;20043;-77
2021/12/30 13:25:03;;;;;;;18.38;4.75;;;;;;;;;;5080801;28;20048;-77
2021/12/30 13:27:40;;;;;;;15.88;3.78;;;;;;;;;;5079438;28;20484;-77
2021/12/30 13:30:07;;;;;;;20.27;4.30;;;;;;;;;;5098168;28;20143;-76
2021/12/30 13:32:34;;;;;;;20.60;5.00;;;;;;;;;;5079985;28;20040;-76
2021/12/30 13:35:05;;;;;;;21.48;5.60;;;;;;;;;;5080950;28;20032;-77
2021/12/30 13:37:54;;;;;;;21.95;4.75;;;;;;;;;;5081937;28;20081;-75
2021/12/30 13:40:22;;;;;;;24.33;5.10;;;;;;;;;;5074380;28;20048;-78
2021/12/30 13:42:50;;;;;;;15.60;3.75;;;;;;;;;;5081350;28;20103;-75
2021/12/30 13:45:16;;;;;;;22.33;4.72;;;;;;;;;;5096770;28;20036;-78
2021/12/30 13:47:42;;;;;;;18.05;4.55;;;;;;;;;;5091956;28;20039;-78
2021/12/30 13:50:14;;;;;;;15.85;4.20;;;;;;;;;;5092105;28;20050;-76
2021/12/30 13:52:40;;;;;;;13.23;4.07;;;;;;;;;;5087258;28;20112;-76
2021/12/30 13:55:11;;;;;;;20.40;5.22;;;;;;;;;;5081370;28;20116;-76
2021/12/30 13:57:37;;;;;;;;;;;;;;;;;;5081001;28;20040;-75
2021/12/30 14:00:06;;;;;;;14.82;5.00;;;;;;;;;;5081220;28;19916;-77
2021/12/30 14:02:31;;;;;;;14.57;4.10;;;;;;;;;;5082113;28;20066;-74
2021/12/30 14:05:09;;;;;;;21.83;5.00;;;;;;;;;;5080094;28;20040;-77
2021/12/30 14:07:37;;;;;;;27.25;4.60;;;;;;;;;;5078677;28;20040;-76
2021/12/30 14:10:04;;;;;;;23.75;5.97;;;;;;;;;;5080524;28;20036;-77
2021/12/30 14:12:31;;;;;;;25.08;5.68;;;;;;;;;;5080667;28;20067;-76
2021/12/30 14:15:13;;;;;;;24.35;5.05;;;;;;;;;;5081946;28;20032;-76
2021/12/30 14:17:42;;;;;;;22.90;6.03;;;;;;;;;;5096006;28;20412;-78
2021/12/30 14:20:12;;;;;;;16.77;5.38;;;;;;;;;;5079723;28;20047;-77
2021/12/30 14:22:40;;;;;;;26.50;5.18;;;;;;;;;;5080983;28;20043;-75
2021/12/30 14:25:24;;;;;;;29.05;5.85;;;;;;;;;;5078274;28;20067;-74
2021/12/30 14:27:50;;;;;;;24.83;5.82;;;;;;;;;;5077711;28;20051;-77
2021/12/30 14:30:16;;;;;;;23.88;5.43;;;;;;;;;;5077352;28;20043;-76
2021/12/30 14:32:43;;;;;;;22.60;5.47;;;;;;;;;;5076034;28;20048;-77
2021/12/30 14:35:09;;;;;;;21.90;5.75;;;;;;;;;;5075838;28;20036;-76
2021/12/30 14:37:39;;;;;;;17.67;5.30;;;;;;;;;;5075317;28;20064;-77